Time;durP1;ratioP1;P1;durP2;ratioP2;P2;SDS_P1;SDS_P2;PMS_P1;PMS_P2;Temp;Humidity;BMP_temperature;BMP_pressure;BME280_temperature;BME280_humidity;BME280_pressure;Samples;Min_cycle;Max_cycle;Signal;HPM_P1;HPM_P2
2021/06/29 00:00:37;;;;;;;;;1.00;1.00;;;;;17.49;61.53;101141.53;6084029;23;46995;-90
2021/06/29 00:03:05;;;;;;;;;2.00;1.00;;;;;17.47;62.00;101131.09;6059381;23;45236;-91
2021/06/29 00:05:33;;;;;;;;;1.00;1.00;;;;;17.45;62.13;101132.97;6061834;23;45745;-91
2021/06/29 00:07:59;;;;;;;;;1.00;1.00;;;;;17.49;62.15;101133.63;6060067;23;45538;-91
2021/06/29 00:10:28;;;;;;;;;3.00;1.00;;;;;17.49;61.95;101131.00;6083006;23;47848;-91
2021/06/29 00:12:54;;;;;;;;;1.00;1.00;;;;;17.50;62.06;101128.28;6060765;23;45282;-91
2021/06/29 00:15:20;;;;;;;;;3.00;1.00;;;;;17.49;61.96;101128.38;6061274;23;44703;-91
2021/06/29 00:17:46;;;;;;;;;1.00;1.00;;;;;17.49;61.61;101133.63;6061782;23;45403;-91
2021/06/29 00:20:13;;;;;;;;;3.33;2.00;;;;;17.44;62.16;101122.53;6060934;23;46432;-91
2021/06/29 00:22:38;;;;;;;;;3.00;1.33;;;;;17.42;62.13;101120.00;6035224;23;45130;-91
2021/06/29 00:25:05;;;;;;;;;1.00;1.00;;;;;17.43;61.82;101115.56;6034924;23;45377;-90
2021/06/29 00:27:30;;;;;;;;;3.67;2.00;;;;;17.45;62.09;101124.25;6059292;23;45192;-91
2021/06/29 00:29:55;;;;;;;;;3.00;2.00;;;;;17.44;62.12;101117.25;6035390;23;47047;-91
2021/06/29 00:32:21;;;;;;;;;1.33;1.00;;;;;17.45;61.86;101118.97;6035832;23;45327;-91
2021/06/29 00:34:46;;;;;;;;;1.67;1.67;;;;;17.44;62.14;101109.38;6035295;23;45292;-91
2021/06/29 00:37:12;;;;;;;;;1.00;1.00;;;;;17.45;61.83;101111.09;6061770;23;45188;-91
2021/06/29 00:39:37;;;;;;;;;1.67;1.33;;;;;17.43;62.18;101121.69;6035351;23;46850;-91
2021/06/29 00:42:03;;;;;;;;;1.00;1.00;;;;;17.43;62.20;101119.06;6059159;23;45161;-91
2021/06/29 00:44:28;;;;;;;;;1.00;1.00;;;;;17.39;62.05;101111.47;6035636;23;45183;-91
2021/06/29 00:46:54;;;;;;;;;1.00;1.00;;;;;17.40;62.20;101113.97;6061294;23;45311;-91
2021/06/29 00:49:20;;;;;;;;;1.67;1.67;;;;;17.41;62.26;101115.66;6035479;23;47253;-91
2021/06/29 00:51:46;;;;;;;;;1.33;1.33;;;;;17.39;62.18;101101.75;6059288;23;45322;-91
2021/06/29 00:54:13;;;;;;;;;1.67;1.67;;;;;17.38;62.21;101096.59;6035194;23;45310;-90
2021/06/29 00:56:40;;;;;;;;;1.00;1.00;;;;;17.36;62.48;101102.78;6059329;23;45314;-91
2021/06/29 00:59:05;;;;;;;;;1.33;1.00;;;;;17.37;62.58;101095.75;6034494;23;47168;-91
2021/06/29 01:01:31;;;;;;;;;2.00;2.00;;;;;17.36;62.52;101100.16;6035248;23;45193;-91
2021/06/29 01:03:57;;;;;;;;;2.00;2.00;;;;;17.34;62.51;101096.78;6059211;23;45232;-91
2021/06/29 01:06:23;;;;;;;;;2.00;2.00;;;;;17.35;62.65;101087.09;6059231;23;45461;-90
2021/06/29 01:08:48;;;;;;;;;4.00;3.00;;;;;17.38;62.12;101091.31;6034979;23;47057;-90
2021/06/29 01:11:14;;;;;;;;;2.00;2.00;;;;;17.36;62.20;101092.25;6058977;23;45701;-91
2021/06/29 01:13:42;;;;;;;;;3.00;2.00;;;;;17.37;62.50;101095.75;6034800;23;45359;-91
2021/06/29 01:16:07;;;;;;;;;1.00;1.00;;;;;17.31;62.31;101091.69;6061117;23;45268;-91
2021/06/29 01:18:38;;;;;;;;;1.00;1.00;;;;;17.29;62.56;101088.31;6058482;23;47074;-90
2021/06/29 01:21:05;;;;;;;;;2.00;2.00;;;;;17.31;62.24;101098.75;6035035;23;45363;-90
2021/06/29 01:23:31;;;;;;;;;1.00;1.00;;;;;17.26;62.38;101087.66;6035163;23;45422;-91
2021/06/29 01:26:23;;;;;;;;;2.67;2.00;;;;;17.19;62.26;101079.28;6060884;23;45415;-91
2021/06/29 01:29:03;;;;;;;;;2.00;2.00;;;;;17.19;62.69;101087.16;6057879;23;47029;-90
2021/06/29 01:31:28;;;;;;;;;1.33;1.33;;;;;17.16;62.49;101089.94;6060678;23;45304;-90
2021/06/29 01:33:54;;;;;;;;;2.00;2.00;;;;;17.11;62.78;101081.50;6058990;23;45545;-90
2021/06/29 01:36:22;;;;;;;;;2.00;2.00;;;;;17.07;62.48;101079.03;6035372;23;45316;-91
2021/06/29 01:38:49;;;;;;;;;5.00;3.33;;;;;17.08;62.97;101085.16;6058274;23;47248;-90
2021/06/29 01:41:20;;;;;;;;;3.00;3.00;;;;;17.06;62.92;101087.03;6034582;23;45525;-90
2021/06/29 01:43:50;;;;;;;;;4.00;3.00;;;;;17.00;62.88;101075.06;6161431;23;45373;-91
2021/06/29 01:46:16;;;;;;;;;2.00;1.00;;;;;16.96;62.98;101077.00;6061146;23;45314;-90
2021/06/29 01:48:51;;;;;;;;;2.00;2.00;;;;;16.98;63.31;101082.16;6058147;23;47293;-90
2021/06/29 01:51:17;;;;;;;;;3.67;3.00;;;;;16.89;62.97;101075.66;6034595;23;45438;-90
2021/06/29 01:53:45;;;;;;;;;4.00;2.00;;;;;16.87;63.27;101069.66;6161676;23;45497;-91
2021/06/29 01:56:15;;;;;;;;;3.00;2.33;;;;;16.87;62.82;101077.53;6035030;23;45209;-91
2021/06/29 01:58:42;;;;;;;;;3.00;2.33;;;;;16.84;63.02;101075.06;6034169;23;47191;-90
2021/06/29 02:01:08;;;;;;;;;1.67;1.67;;;;;16.86;62.97;101067.97;6059828;23;45379;-90
2021/06/29 02:03:33;;;;;;;;;2.67;2.67;;;;;16.86;63.22;101065.34;6034706;23;45268;-91
2021/06/29 02:05:59;;;;;;;;;2.33;2.33;;;;;16.84;63.16;101067.19;6060790;23;45314;-91
2021/06/29 02:08:24;;;;;;;;;2.00;2.00;;;;;16.82;63.22;101067.28;6058536;23;47069;-91
2021/06/29 02:10:50;;;;;;;;;2.00;2.00;;;;;16.84;63.35;101072.44;6058041;23;45256;-90
2021/06/29 02:13:16;;;;;;;;;2.00;2.00;;;;;16.82;63.14;101072.53;6060434;23;45398;-90
2021/06/29 02:15:41;;;;;;;;;2.33;2.00;;;;;16.81;63.14;101075.28;6059589;23;45411;-91
2021/06/29 02:18:07;;;;;;;;;1.67;1.67;;;;;16.80;63.37;101078.84;6034194;23;47187;-90
2021/06/29 02:20:33;;;;;;;;;1.33;1.33;;;;;16.73;63.11;101067.81;6060322;23;45238;-91
2021/06/29 02:22:58;;;;;;;;;3.67;3.00;;;;;16.70;63.31;101063.59;6034219;23;45248;-90
2021/06/29 02:25:24;;;;;;;;;2.67;2.67;;;;;16.70;63.56;101074.09;6058645;23;45290;-91
2021/06/29 02:27:49;;;;;;;;;3.00;3.00;;;;;16.67;63.42;101065.53;6034018;23;47237;-90
2021/06/29 02:30:15;;;;;;;;;3.00;3.00;;;;;16.65;63.56;101064.75;6034214;23;45404;-90
2021/06/29 02:32:40;;;;;;;;;2.33;2.33;;;;;16.65;63.15;101070.88;6034678;23;45392;-90
2021/06/29 02:35:06;;;;;;;;;3.00;2.00;;;;;16.66;63.70;101082.25;6058246;23;45361;-90
2021/06/29 02:37:32;;;;;;;;;3.00;2.67;;;;;16.63;63.73;101072.75;6033966;23;48010;-90
2021/06/29 02:39:59;;;;;;;;;3.67;2.33;;;;;16.62;63.69;101076.28;6057971;23;45371;-91
2021/06/29 02:42:25;;;;;;;;;3.00;2.00;;;;;16.56;63.85;101059.09;6057973;23;45346;-91
2021/06/29 02:44:50;;;;;;;;;2.67;2.67;;;;;16.56;63.80;101063.50;6034059;23;45226;-91
2021/06/29 02:47:16;;;;;;;;;3.67;1.67;;;;;16.52;64.07;101062.84;6058042;23;47350;-90
2021/06/29 02:49:42;;;;;;;;;2.67;2.00;;;;;16.49;63.88;101054.28;6034198;23;45225;-91
2021/06/29 02:52:08;;;;;;;;;2.00;1.00;;;;;16.47;63.66;101061.41;6034336;23;45330;-91
2021/06/29 02:54:34;;;;;;;;;2.00;2.00;;;;;16.47;63.69;101056.16;6034277;23;45510;-90
2021/06/29 02:56:59;;;;;;;;;2.33;2.00;;;;;16.41;63.55;101047.69;6034240;23;46971;-91
2021/06/29 02:59:25;;;;;;;;;2.00;1.00;;;;;16.39;64.09;101043.44;6033509;23;45324;-91
2021/06/29 03:01:51;;;;;;;;;1.67;1.67;;;;;16.36;63.58;101047.09;6034466;23;45449;-91
2021/06/29 03:04:17;;;;;;;;;2.00;2.00;;;;;16.32;64.05;101044.69;6033887;23;45470;-91
2021/06/29 03:06:43;;;;;;;;;1.00;1.00;;;;;16.34;64.23;101042.84;6033904;23;47169;-90
2021/06/29 03:09:09;;;;;;;;;3.00;1.00;;;;;16.33;63.59;101043.78;6059742;23;45378;-90
2021/06/29 03:11:38;;;;;;;;;1.67;1.00;;;;;16.31;63.83;101041.25;6034220;23;45161;-91
2021/06/29 03:14:05;;;;;;;;;2.00;1.00;;;;;16.26;63.97;101028.34;6034550;23;45316;-90
2021/06/29 03:16:31;;;;;;;;;2.00;1.67;;;;;16.25;63.80;101023.22;6169785;22;47016;-90
2021/06/29 03:18:56;;;;;;;;;2.00;2.00;;;;;16.25;63.39;101028.47;6060131;23;45266;-91
2021/06/29 03:21:25;;;;;;;;;2.00;2.00;;;;;16.20;63.68;101018.19;6057964;23;45568;-91
2021/06/29 03:23:52;;;;;;;;;3.33;2.33;;;;;16.21;64.37;101024.31;6082426;23;45228;-90
2021/06/29 03:26:17;;;;;;;;;2.67;1.67;;;;;16.22;63.59;101018.97;6060410;23;45735;-90
2021/06/29 03:28:43;;;;;;;;;2.33;2.00;;;;;16.20;64.11;101010.31;6059388;23;45780;-91
2021/06/29 03:31:08;;;;;;;;;3.67;2.00;;;;;16.20;64.06;101017.38;6059917;23;45699;-91
2021/06/29 03:33:34;;;;;;;;;2.00;2.00;;;;;16.18;64.45;101022.69;6062471;23;45334;-90
2021/06/29 03:35:59;;;;;;;;;2.67;2.67;;;;;16.17;64.38;101013.97;6059367;23;46976;-90
2021/06/29 03:38:25;;;;;;;;;2.33;2.00;;;;;16.18;64.40;101020.06;6060017;23;45380;-91
2021/06/29 03:40:51;;;;;;;;;1.00;1.00;;;;;16.14;64.35;101011.50;6059801;23;45286;-90
2021/06/29 03:43:16;;;;;;;;;1.00;1.00;;;;;16.16;64.33;101020.16;6084283;23;45446;-91
2021/06/29 03:45:41;;;;;;;;;1.33;1.33;;;;;16.16;64.35;101009.63;6059616;23;47111;-90
2021/06/29 03:48:07;;;;;;;;;3.00;3.00;;;;;16.14;64.36;101011.50;6083259;23;45366;-90
2021/06/29 03:50:33;;;;;;;;;2.00;2.00;;;;;16.19;64.48;101018.31;6084502;23;44791;-90
2021/06/29 03:52:58;;;;;;;;;2.00;2.00;;;;;16.17;64.99;101021.84;6061790;23;45491;-91
2021/06/29 03:55:24;;;;;;;;;2.00;2.00;;;;;16.16;64.46;101017.53;6059535;23;47212;-90
2021/06/29 03:57:49;;;;;;;;;0.00;0.00;;;;;16.21;64.66;101019.06;6083559;23;45854;-90
2021/06/29 04:00:15;;;;;;;;;4.00;3.00;;;;;16.21;64.50;101005.94;6083347;23;45254;-90
2021/06/29 04:02:40;;;;;;;;;2.00;2.00;;;;;16.22;64.50;101018.13;6062101;23;45287;-90
2021/06/29 04:05:08;;;;;;;;;5.00;3.00;;;;;16.20;64.41;101014.75;6061550;23;45414;-90
2021/06/29 04:07:35;;;;;;;;;3.00;3.00;;;;;16.17;64.20;101013.13;6059429;23;45495;-91
2021/06/29 04:10:01;;;;;;;;;3.00;3.00;;;;;16.21;64.24;101026.94;6059291;23;45648;-91
2021/06/29 04:12:27;;;;;;;;;3.33;2.00;;;;;16.23;64.51;101028.53;6060161;23;45366;-91
2021/06/29 04:14:53;;;;;;;;;3.00;3.00;;;;;16.19;64.49;101020.94;6059438;23;47452;-91
2021/06/29 04:17:18;;;;;;;;;3.00;3.00;;;;;16.22;64.55;101021.59;6059158;23;45428;-91
2021/06/29 04:19:44;;;;;;;;;3.67;2.00;;;;;16.22;64.46;101010.25;6059402;23;45299;-91
2021/06/29 04:22:09;;;;;;;;;3.33;2.33;;;;;16.26;64.57;101017.84;6060192;23;45261;-91
2021/06/29 04:24:35;;;;;;;;;3.00;3.00;;;;;16.24;64.19;101009.22;6061084;23;45412;-91
2021/06/29 04:27:01;;;;;;;;;2.67;2.67;;;;;16.26;64.25;101009.13;6059541;23;45506;-91
2021/06/29 04:29:26;;;;;;;;;3.00;2.00;;;;;16.28;64.47;101013.38;6084091;23;45227;-92
2021/06/29 04:31:52;;;;;;;;;2.67;2.67;;;;;16.29;64.79;101016.81;6059724;23;45403;-91
2021/06/29 04:34:17;;;;;;;;;3.00;3.00;;;;;16.26;64.48;101015.22;6059541;23;47001;-90
2021/06/29 04:36:43;;;;;;;;;2.00;2.00;;;;;16.27;64.53;101013.47;6060995;23;45322;-91
2021/06/29 04:39:08;;;;;;;;;1.67;1.67;;;;;16.29;64.47;101017.69;6060102;23;45261;-90
2021/06/29 04:41:34;;;;;;;;;2.00;2.00;;;;;16.31;64.33;101007.09;6059872;23;45532;-91
2021/06/29 04:44:00;;;;;;;;;2.67;2.00;;;;;16.32;64.78;101011.41;6059432;23;47182;-91
2021/06/29 04:46:25;;;;;;;;;2.00;2.00;;;;;16.33;64.38;101001.78;6061183;23;45403;-91
2021/06/29 04:48:51;;;;;;;;;3.67;2.33;;;;;16.34;64.92;101006.91;6059786;23;45359;-91
2021/06/29 04:51:16;;;;;;;;;2.00;2.00;;;;;16.35;64.57;101002.53;6059637;23;45784;-91
2021/06/29 04:53:42;;;;;;;;;2.33;2.00;;;;;16.35;64.73;100995.50;6059498;23;47846;-91
2021/06/29 04:56:19;;;;;;;;;2.00;2.00;;;;;16.40;64.69;101009.19;6059384;23;45527;-91
2021/06/29 04:58:45;;;;;;;;;2.00;2.00;;;;;16.43;64.45;101011.66;6059141;23;45296;-92
2021/06/29 05:01:11;;;;;;;;;3.00;3.00;;;;;16.43;64.53;101000.28;6059527;23;45337;-90
2021/06/29 05:03:36;;;;;;;;;3.67;3.67;;;;;16.46;64.59;101001.91;6059237;23;47117;-91
2021/06/29 05:06:02;;;;;;;;;3.00;3.00;;;;;16.46;64.46;101015.03;6059425;23;45439;-91
2021/06/29 05:08:27;;;;;;;;;3.00;3.00;;;;;16.47;64.38;101009.72;6059513;23;45371;-91
2021/06/29 05:10:53;;;;;;;;;6.00;4.67;;;;;16.47;64.51;101012.34;6059805;23;45261;-89
2021/06/29 05:13:18;;;;;;;;;3.00;3.00;;;;;16.52;64.65;101020.81;6058924;23;47774;-91
2021/06/29 05:15:44;;;;;;;;;4.00;4.00;;;;;16.55;64.69;101028.53;6059069;23;45277;-92
2021/06/29 05:18:09;;;;;;;;;5.67;4.67;;;;;16.59;64.61;101020.44;6059208;23;45365;-92
2021/06/29 05:20:35;;;;;;;;;7.00;4.33;;;;;16.60;64.36;101025.63;6059564;23;45390;-91
2021/06/29 05:23:00;;;;;;;;;5.67;4.00;;;;;16.62;64.53;101029.00;6058779;23;47256;-91
2021/06/29 05:25:25;;;;;;;;;4.33;3.67;;;;;16.69;64.71;101033.00;6061130;23;45325;-91
2021/06/29 05:27:51;;;;;;;;;4.00;3.00;;;;;16.70;64.14;101031.19;6059343;23;45340;-91
2021/06/29 05:30:17;;;;;;;;;5.00;5.00;;;;;16.76;64.78;101041.34;6084124;23;45402;-91
2021/06/29 05:32:45;;;;;;;;;5.00;5.00;;;;;16.78;64.63;101044.75;6083525;23;47309;-92
2021/06/29 05:35:11;;;;;;;;;6.33;5.67;;;;;16.78;64.17;101036.00;6058845;23;45302;-91
2021/06/29 05:37:36;;;;;;;;;2.67;2.67;;;;;16.79;64.12;101041.19;6059272;23;45265;-91
2021/06/29 05:40:02;;;;;;;;;5.00;4.33;;;;;16.77;64.10;101036.94;6059137;23;45277;-92
2021/06/29 05:42:28;;;;;;;;;5.00;4.00;;;;;16.83;63.92;101049.72;6059285;23;47485;-91
2021/06/29 05:44:53;;;;;;;;;5.00;3.67;;;;;16.83;64.25;101047.97;6082852;23;45294;-90
2021/06/29 05:47:22;;;;;;;;;5.67;4.00;;;;;16.83;64.16;101047.09;6060673;23;45219;-91
2021/06/29 05:49:48;;;;;;;;;2.67;2.67;;;;;16.86;64.34;101057.47;6083656;23;45393;-91
2021/06/29 05:52:14;;;;;;;;;4.00;3.67;;;;;16.85;64.23;101054.91;6058579;23;47229;-91
2021/06/29 05:54:41;;;;;;;;;5.00;5.00;;;;;16.86;64.09;101052.19;6083259;23;44663;-90
2021/06/29 05:57:07;;;;;;;;;4.33;4.33;;;;;16.89;64.17;101054.63;6058813;23;45246;-91
2021/06/29 05:59:33;;;;;;;;;4.33;4.33;;;;;16.91;63.96;101049.28;6059010;23;44793;-90
2021/06/29 06:01:58;;;;;;;;;4.00;3.00;;;;;16.94;63.66;101054.38;6082552;23;46556;-91
2021/06/29 06:04:24;;;;;;;;;3.00;3.00;;;;;16.93;64.39;101050.91;6058612;23;45430;-91
2021/06/29 06:06:49;;;;;;;;;4.00;3.00;;;;;16.96;63.79;101063.03;6083147;23;45497;-91
2021/06/29 06:09:14;;;;;;;;;4.67;4.67;;;;;16.95;63.79;101069.22;6059161;23;45387;-91
2021/06/29 06:11:40;;;;;;;;;2.50;2.50;;;;;16.96;64.03;101065.66;6058330;23;46840;-91
2021/06/29 06:14:05;;;;;;;;;7.00;4.67;;;;;16.94;64.06;101067.53;6082489;23;45647;-91
2021/06/29 06:16:31;;;;;;;;;3.00;3.00;;;;;16.94;64.34;101071.00;6057937;23;45244;-91
2021/06/29 06:18:56;;;;;;;;;5.00;4.00;;;;;17.01;64.29;101070.63;6059057;23;45232;-91
2021/06/29 06:21:22;;;;;;;;;4.33;4.33;;;;;16.99;64.44;101070.72;6082826;23;46991;-91
2021/06/29 06:23:47;;;;;;;;;4.00;4.00;;;;;17.00;64.36;101063.69;6058120;23;45515;-91
2021/06/29 06:26:13;;;;;;;;;3.00;3.00;;;;;17.01;64.30;101063.59;6060654;23;45368;-91
2021/06/29 06:28:38;;;;;;;;;4.00;3.00;;;;;17.03;64.40;101066.19;6082894;23;45300;-92
2021/06/29 06:31:09;;;;;;;;;5.33;4.00;;;;;17.02;64.35;101064.44;6057269;23;46929;-91
2021/06/29 06:33:37;;;;;;;;;3.33;3.33;;;;;17.01;64.38;101068.00;6059103;23;45242;-91
2021/06/29 06:36:03;;;;;;;;;5.00;4.33;;;;;16.98;64.37;101061.13;6059243;23;45461;-92
2021/06/29 06:38:28;;;;;;;;;3.33;3.00;;;;;17.00;64.59;101067.19;6059269;23;44786;-92
2021/06/29 06:40:56;;;;;;;;;5.00;3.67;;;;;17.00;64.50;101058.44;6058864;23;46977;-92
2021/06/29 06:43:22;;;;;;;;;4.00;4.00;;;;;16.99;64.97;101065.44;6058700;23;45256;-91
2021/06/29 06:46:00;;;;;;;;;3.67;3.67;;;;;17.01;64.89;101070.63;6058925;23;45187;-92
2021/06/29 06:48:26;;;;;;;;;5.67;4.00;;;;;17.01;65.18;101062.75;6059145;23;45338;-92
2021/06/29 06:50:51;;;;;;;;;6.00;3.33;;;;;17.06;65.17;101066.84;6058518;23;47050;-92
2021/06/29 06:53:17;;;;;;;;;5.67;5.00;;;;;17.07;65.05;101067.66;6058437;23;45425;-91
2021/06/29 06:55:42;;;;;;;;;4.67;4.00;;;;;17.07;64.84;101079.03;6058979;23;45671;-92
2021/06/29 06:58:08;;;;;;;;;7.33;4.00;;;;;17.12;64.78;101073.50;6059480;23;45379;-92
2021/06/29 07:00:36;;;;;;;;;4.00;4.00;;;;;17.13;64.71;101069.94;6059040;23;47941;-93
2021/06/29 07:03:02;;;;;;;;;7.00;3.67;;;;;17.13;65.31;101077.84;6082825;23;45164;-91
2021/06/29 07:05:30;;;;;;;;;5.33;4.00;;;;;17.15;64.99;101078.59;6058455;23;45353;-90
2021/06/29 07:07:55;;;;;;;;;5.33;5.00;;;;;17.19;64.93;101077.50;6058082;23;45197;-92
2021/06/29 07:10:20;;;;;;;;;6.67;6.67;;;;;17.17;64.82;101076.72;6057849;23;47047;-91
2021/06/29 07:12:51;;;;;;;;;4.33;4.33;;;;;17.20;65.12;101076.56;6058298;23;45318;-91
2021/06/29 07:15:16;;;;;;;;;3.67;3.67;;;;;17.18;65.11;101081.03;6058058;23;45399;-91
2021/06/29 07:17:44;;;;;;;;;6.00;5.00;;;;;17.18;64.76;101083.66;6082074;23;45470;-90
2021/06/29 07:20:10;;;;;;;;;5.00;4.33;;;;;17.19;65.00;101079.28;6057961;23;47256;-91
2021/06/29 07:22:46;;;;;;;;;6.25;5.75;;;;;17.18;65.15;101074.94;6056736;23;45668;-91
2021/06/29 07:25:14;;;;;;;;;4.00;3.33;;;;;17.17;64.76;101083.78;6057760;23;45228;-90
2021/06/29 07:28:00;;;;;;;;;6.67;4.00;;;;;17.19;65.33;101082.75;6057936;23;44861;-89
2021/06/29 07:31:24;;;;;;;;;;;;;;;;;;;;;
2021/06/29 07:33:56;;;;;;;;;6.00;6.00;;;;;17.20;65.57;101080.94;6057396;23;71026;-91
2021/06/29 07:36:30;;;;;;;;;6.00;6.00;;;;;17.20;65.52;101078.31;6058017;23;45348;-90
2021/06/29 07:42:51;;;;;;;;;6.33;6.00;;;;;17.33;65.56;101086.34;5887019;24;45934;-91
2021/06/29 07:45:51;;;;;;;;;;;;;;;;;;;;;
2021/06/29 07:48:39;;;;;;;;;;;;;;;;;;;;;
2021/06/29 07:51:11;;;;;;;;;9.33;8.00;;;;;17.34;66.47;101094.16;5919239;24;63658;-91
2021/06/29 07:53:59;;;;;;;;;;;;;;;;;;;;;
2021/06/29 07:56:37;;;;;;;;;5.67;5.00;;;;;17.44;66.02;101089.19;5918327;24;74028;-91
2021/06/29 07:59:27;;;;;;;;;;;;;;;;;;;;;
2021/06/29 08:05:30;;;;;;;;;6.33;6.33;;;;;17.57;65.94;101084.03;5891950;24;45532;-91
2021/06/29 08:08:14;;;;;;;;;5.67;5.67;;;;;17.66;65.81;101089.66;5869712;24;45425;-92
2021/06/29 08:10:53;;;;;;;;;;;;;;;;;;;;;
2021/06/29 08:13:39;;;;;;;;;7.00;7.00;;;;;17.77;65.51;101085.47;5835031;24;63030;-91
2021/06/29 08:16:06;;;;;;;;;6.00;6.00;;;;;17.84;65.65;101093.84;5892762;24;47063;-92
2021/06/29 08:19:10;;;;;;;;;3.00;3.00;;;;;17.85;65.16;101092.03;5933511;22;45281;-91
2021/06/29 08:21:38;;;;;;;;;6.67;5.00;;;;;17.85;65.71;101090.25;6060706;23;45663;-92
2021/06/29 08:24:17;;;;;;;;;6.00;6.00;;;;;17.85;65.09;101094.66;6060006;23;45235;-91
2021/06/29 08:26:54;;;;;;;;;5.67;5.67;;;;;17.86;65.14;101093.72;6061779;23;46236;-92
2021/06/29 08:29:30;;;;;;;;;5.00;5.00;;;;;17.88;64.98;101092.69;6060041;23;45177;-92
2021/06/29 08:31:55;;;;;;;;;8.00;5.33;;;;;17.92;64.89;101098.63;6060133;23;45312;-92
2021/06/29 08:34:24;;;;;;;;;5.33;5.00;;;;;17.95;65.63;101100.22;6060556;23;45529;-92
2021/06/29 08:36:50;;;;;;;;;3.67;3.00;;;;;17.94;64.91;101096.75;6035366;23;46804;-92
2021/06/29 08:39:20;;;;;;;;;8.33;5.33;;;;;17.93;65.08;101094.19;6036265;23;45291;-92
2021/06/29 08:41:53;;;;;;;;;4.00;4.00;;;;;17.93;64.86;101092.44;6059846;23;45433;-92
2021/06/29 08:44:18;;;;;;;;;3.00;3.00;;;;;17.91;65.29;101094.28;6060671;23;45264;-92
2021/06/29 08:46:44;;;;;;;;;3.00;2.00;;;;;17.92;64.44;101092.50;6060048;23;47655;-94
2021/06/29 08:49:12;;;;;;;;;2.33;2.00;;;;;17.91;64.17;101091.66;6058861;23;45159;-92
2021/06/29 08:51:38;;;;;;;;;2.00;2.00;;;;;17.89;63.42;101091.78;6036632;23;45438;-92
2021/06/29 08:54:05;;;;;;;;;3.67;3.00;;;;;17.93;63.88;101095.06;6061703;23;45209;-93
2021/06/29 08:56:33;;;;;;;;;3.00;2.00;;;;;17.93;64.42;101089.78;6037929;23;46856;-92
2021/06/29 08:59:11;;;;;;;;;2.00;2.00;;;;;17.97;63.91;101086.00;6058594;23;45257;-92
2021/06/29 09:01:39;;;;;;;;;4.00;2.00;;;;;18.00;63.34;101096.34;6058303;23;45469;-93
2021/06/29 09:04:07;;;;;;;;;2.33;2.33;;;;;17.96;63.38;101094.84;6035214;23;45386;-92
2021/06/29 09:06:43;;;;;;;;;2.00;2.00;;;;;17.98;63.63;101095.63;6059011;23;47817;-92
2021/06/29 09:09:39;;;;;;;;;;;;;;;;;;;;;
2021/06/29 09:12:19;;;;;;;;;3.67;3.67;;;;;17.98;63.08;101093.00;6059425;23;67263;-93
2021/06/29 09:14:47;;;;;;;;;2.67;2.33;;;;;18.02;63.13;101097.09;6028461;23;45743;-92
2021/06/29 09:17:44;;;;;;;;;3.00;3.00;;;;;18.02;63.14;101089.19;6033260;23;48263;-92
2021/06/29 09:20:48;;;;;;;;;4.33;3.33;;;;;18.05;63.44;101096.06;6035396;23;45214;-92
2021/06/29 09:23:27;;;;;;;;;4.00;4.00;;;;;18.06;63.21;101087.28;6026339;23;45297;-91
2021/06/29 09:26:04;;;;;;;;;3.00;2.00;;;;;18.10;63.24;101091.41;6002647;23;45455;-92
2021/06/29 09:28:38;;;;;;;;;5.00;3.67;;;;;18.19;63.51;101094.41;6026178;23;47220;-92
2021/06/29 09:31:23;;;;;;;;;3.00;3.00;;;;;18.21;62.47;101089.88;6031818;23;44959;-92
2021/06/29 09:33:59;;;;;;;;;5.00;3.00;;;;;18.26;62.89;101091.28;6006025;23;45431;-91
2021/06/29 09:36:30;;;;;;;;;4.00;3.00;;;;;18.30;62.75;101084.88;6031186;23;45582;-92
2021/06/29 09:39:10;;;;;;;;;;;;;;;;;;;;;
2021/06/29 09:41:46;;;;;;;;;3.00;3.00;;;;;18.46;63.44;101081.25;6027801;23;73227;-92
2021/06/29 09:44:20;;;;;;;;;5.00;3.00;;;;;18.58;62.83;101078.78;6007241;23;45352;-92
2021/06/29 09:46:45;;;;;;;;;2.00;2.00;;;;;18.65;62.21;101083.56;6027567;23;45420;-92
2021/06/29 09:49:14;;;;;;;;;1.00;1.00;;;;;18.76;62.33;101088.16;6002459;23;47162;-93
2021/06/29 09:51:42;;;;;;;;;5.67;1.00;;;;;18.88;62.10;101085.66;6003008;23;45548;-95
2021/06/29 09:54:10;;;;;;;;;2.67;2.00;;;;;18.92;61.53;101073.94;6008033;23;45358;-92
2021/06/29 09:56:44;;;;;;;;;1.00;1.00;;;;;19.00;60.87;101081.34;6007426;23;45404;-93
2021/06/29 09:59:29;;;;;;;;;1.67;1.67;;;;;19.08;60.74;101084.38;6131819;23;47486;-92
2021/06/29 10:02:10;;;;;;;;;0.67;0.67;;;;;19.16;59.93;101075.94;6030445;23;45423;-93
2021/06/29 10:04:36;;;;;;;;;2.00;2.00;;;;;19.21;59.43;101072.03;6030939;23;45370;-93
2021/06/29 10:07:18;;;;;;;;;2.00;1.00;;;;;19.33;60.04;101082.69;6007146;23;45300;-92
2021/06/29 10:09:43;;;;;;;;;2.00;2.00;;;;;19.44;60.14;101074.91;6031107;23;47257;-93
2021/06/29 10:12:23;;;;;;;;;2.00;2.00;;;;;19.61;60.06;101078.16;6006915;23;45795;-93
2021/06/29 10:14:48;;;;;;;;;3.00;1.00;;;;;19.73;59.98;101068.56;5998477;23;45498;-93
2021/06/29 10:17:14;;;;;;;;;2.00;1.33;;;;;19.86;59.40;101079.13;6128450;23;45509;-93
2021/06/29 10:22:56;;;;;;;;;1.00;1.00;;;;;19.99;58.25;101079.09;6093602;23;44759;-95
2021/06/29 10:25:22;;;;;;;;;0.67;0.67;;;;;20.05;57.85;101070.78;6092477;23;45442;-94
2021/06/29 10:27:49;;;;;;;;;1.67;1.67;;;;;20.14;58.13;101075.38;6068337;23;45410;-95
2021/06/29 10:30:18;;;;;;;;;3.00;1.00;;;;;20.21;57.71;101069.66;6091600;23;48160;-94
2021/06/29 10:32:44;;;;;;;;;3.67;2.00;;;;;20.28;58.22;101066.47;6092546;23;45390;-94
2021/06/29 10:35:10;;;;;;;;;2.00;1.67;;;;;20.41;58.37;101065.59;6092134;23;45317;-93
2021/06/29 10:38:20;;;;;;;;;2.00;2.00;;;;;20.49;57.82;101060.59;6092923;23;44922;-94
2021/06/29 10:40:55;;;;;;;;;2.67;1.33;;;;;20.55;57.06;101061.94;6068126;23;46871;-94
2021/06/29 10:43:32;;;;;;;;;1.67;1.67;;;;;20.55;57.06;101054.00;6092102;23;45211;-93
2021/06/29 10:46:15;;;;;;;;;1.00;1.00;;;;;20.54;56.47;101054.94;6066711;23;45354;-95
2021/06/29 10:48:42;;;;;;;;;1.33;1.00;;;;;20.59;56.54;101055.47;6092895;23;45324;-94
2021/06/29 10:51:11;;;;;;;;;1.67;1.67;;;;;20.57;56.48;101049.44;6092010;23;46767;-94
2021/06/29 10:53:46;;;;;;;;;1.00;1.00;;;;;20.64;55.85;101052.50;6115331;23;45267;-94
2021/06/29 10:56:17;;;;;;;;;3.00;2.67;;;;;20.66;55.35;101053.22;6158150;23;45273;-94
2021/06/29 10:58:47;;;;;;;;;1.00;1.00;;;;;20.62;55.12;101049.09;6132953;23;45359;-95
2021/06/29 11:01:33;;;;;;;;;1.00;1.00;;;;;20.62;55.07;101057.03;6130704;23;46991;-94
2021/06/29 11:04:02;;;;;;;;;1.00;1.00;;;;;20.63;55.06;101049.00;6130756;23;45982;-95
2021/06/29 11:06:42;;;;;;;;;1.00;1.00;;;;;20.70;54.64;101060.78;6156011;23;45430;-94
2021/06/29 11:09:11;;;;;;;;;1.67;1.00;;;;;20.70;55.03;101052.03;6154664;23;45422;-95
2021/06/29 11:11:38;;;;;;;;;0.67;0.67;;;;;20.70;55.10;101054.69;6129680;23;46685;-95
2021/06/29 11:14:31;;;;;;;;;1.00;1.00;;;;;20.70;55.24;101052.84;6129698;23;44890;-95
2021/06/29 11:17:02;;;;;;;;;1.67;1.67;;;;;20.70;54.35;101057.31;6129994;23;45439;-94
2021/06/29 11:20:05;;;;;;;;;2.00;1.00;;;;;20.73;54.58;101064.19;6129016;23;46171;-94
2021/06/29 11:23:15;;;;;;;;;2.33;1.67;;;;;20.69;53.91;101059.13;6129767;23;47497;-95
2021/06/29 11:25:54;;;;;;;;;1.00;1.00;;;;;20.64;53.52;101065.72;6106889;23;45929;-95
2021/06/29 11:28:36;;;;;;;;;1.00;1.00;;;;;20.59;54.01;101059.91;6155865;23;45407;-95
2021/06/29 11:31:33;;;;;;;;;2.00;2.00;;;;;20.53;53.59;101056.75;6154847;23;44869;-94
2021/06/29 11:34:06;;;;;;;;;1.00;1.00;;;;;20.59;54.44;101063.38;6154780;23;46998;-95
2021/06/29 11:36:37;;;;;;;;;1.33;1.00;;;;;20.58;54.10;101066.13;6129880;23;45187;-96
2021/06/29 11:39:17;;;;;;;;;2.00;1.00;;;;;20.58;53.77;101060.84;6129789;23;44703;-94
2021/06/29 11:42:05;;;;;;;;;2.00;1.00;;;;;20.48;52.94;101055.41;6129496;23;45409;-94
2021/06/29 11:44:38;;;;;;;;;2.00;2.00;;;;;20.46;53.10;101058.16;6131637;23;47330;-94
2021/06/29 11:47:06;;;;;;;;;1.00;1.00;;;;;20.37;53.15;101061.47;6133131;23;45390;-94
2021/06/29 11:49:37;;;;;;;;;2.33;1.33;;;;;20.34;53.49;101059.91;6133756;23;45323;-94
2021/06/29 11:52:13;;;;;;;;;1.00;1.00;;;;;20.35;54.03;101058.09;6158721;23;45357;-94
2021/06/29 11:54:50;;;;;;;;;1.00;1.00;;;;;20.36;53.76;101055.34;6132350;23;47214;-94
2021/06/29 11:57:25;;;;;;;;;1.00;1.00;;;;;20.43;53.73;101055.75;6130512;23;45389;-94
2021/06/29 12:00:01;;;;;;;;;2.00;1.33;;;;;20.44;53.95;101041.56;6131421;23;45592;-94